createdAt,value
2017-12-31T00:02:13.055Z,49.10
2017-12-31T00:04:40.703Z,49.10
2017-12-31T00:07:08.283Z,49.10
2017-12-31T00:09:35.915Z,49.10
2017-12-31T00:12:03.538Z,49.10
2017-12-31T00:14:31.108Z,49.00
2017-12-31T00:16:58.698Z,49.00
2017-12-31T00:19:26.273Z,49.00
2017-12-31T00:21:53.862Z,49.00
2017-12-31T00:24:22.230Z,48.90
2017-12-31T00:26:50.690Z,48.90
2017-12-31T00:29:18.260Z,49.00
2017-12-31T00:31:45.879Z,48.90
2017-12-31T00:34:15.431Z,48.90
2017-12-31T00:36:43.053Z,49.00
2017-12-31T00:39:10.645Z,48.80
2017-12-31T00:41:38.255Z,48.80
2017-12-31T00:44:05.833Z,48.80
2017-12-31T00:46:33.417Z,48.80
2017-12-31T00:49:01.019Z,48.80
2017-12-31T00:51:29.374Z,48.70
2017-12-31T00:53:57.948Z,48.70
2017-12-31T00:56:25.527Z,48.70
2017-12-31T00:58:53.123Z,48.70
2017-12-31T01:01:20.735Z,48.70
2017-12-31T01:03:48.348Z,48.60
2017-12-31T01:06:15.950Z,48.60
2017-12-31T01:08:43.550Z,48.60
2017-12-31T01:11:11.910Z,48.60
2017-12-31T01:13:40.290Z,48.60
2017-12-31T01:16:08.661Z,48.50
2017-12-31T01:18:36.283Z,48.50
2017-12-31T01:21:03.854Z,48.50
2017-12-31T01:23:31.431Z,48.50
2017-12-31T01:25:59.056Z,48.40
2017-12-31T01:28:26.641Z,48.40
2017-12-31T01:30:55.028Z,48.40
2017-12-31T01:33:22.635Z,48.40
2017-12-31T01:35:50.982Z,48.40
2017-12-31T01:38:18.621Z,48.40
2017-12-31T01:40:46.212Z,48.40
2017-12-31T01:43:13.802Z,48.30
2017-12-31T01:45:41.398Z,48.40
2017-12-31T01:48:09.014Z,48.40
2017-12-31T01:50:37.369Z,48.30
2017-12-31T01:53:04.942Z,48.30
2017-12-31T01:55:33.309Z,48.30
2017-12-31T01:58:00.921Z,48.30
2017-12-31T02:00:28.517Z,48.40
2017-12-31T02:02:56.888Z,48.40
2017-12-31T02:05:25.232Z,48.30
2017-12-31T02:07:52.850Z,48.70
2017-12-31T02:10:20.438Z,48.30
2017-12-31T02:12:48.055Z,48.30
2017-12-31T02:15:15.645Z,48.20
2017-12-31T02:17:43.996Z,48.20
2017-12-31T02:20:11.577Z,48.20
2017-12-31T02:22:39.198Z,48.20
2017-12-31T02:25:06.812Z,48.20
2017-12-31T02:27:35.173Z,48.20
2017-12-31T02:30:03.526Z,47.70
2017-12-31T02:32:31.120Z,48.20
2017-12-31T02:34:59.523Z,48.20
2017-12-31T02:37:27.132Z,48.10
2017-12-31T02:39:54.718Z,48.10
2017-12-31T02:42:23.073Z,48.50
2017-12-31T02:44:50.670Z,48.10
2017-12-31T02:47:19.026Z,48.10
2017-12-31T02:49:46.645Z,48.10
2017-12-31T02:52:14.879Z,48.10
2017-12-31T02:54:43.237Z,48.10
2017-12-31T02:57:11.627Z,48.00
2017-12-31T02:59:39.218Z,48.00
2017-12-31T03:02:06.840Z,48.00
2017-12-31T03:04:34.481Z,48.00
2017-12-31T03:07:02.061Z,48.00
2017-12-31T03:09:29.675Z,48.00
2017-12-31T03:11:57.283Z,48.00
2017-12-31T03:14:24.915Z,48.00
2017-12-31T03:16:52.508Z,48.00
2017-12-31T03:19:20.109Z,48.00
2017-12-31T03:21:47.716Z,47.80
2017-12-31T03:24:15.309Z,47.90
2017-12-31T03:26:43.736Z,47.90
2017-12-31T03:29:11.335Z,47.90
2017-12-31T03:31:38.913Z,47.90
2017-12-31T03:34:07.248Z,48.00
2017-12-31T03:36:34.856Z,48.00
2017-12-31T03:39:07.145Z,48.00
2017-12-31T03:41:34.735Z,48.00
2017-12-31T03:44:02.316Z,47.90
2017-12-31T03:46:29.906Z,47.90
2017-12-31T03:48:58.277Z,47.90
2017-12-31T03:51:26.709Z,47.90
2017-12-31T03:53:54.289Z,47.90
2017-12-31T03:56:21.905Z,47.90
2017-12-31T03:58:49.527Z,47.90
2017-12-31T04:01:17.104Z,47.90
2017-12-31T04:03:45.475Z,47.90
2017-12-31T04:06:13.064Z,47.90
2017-12-31T04:08:40.652Z,48.50
2017-12-31T04:11:08.242Z,47.90
2017-12-31T04:13:35.849Z,47.90
2017-12-31T04:16:03.477Z,47.90
2017-12-31T04:18:31.081Z,47.90
2017-12-31T04:20:58.660Z,47.50
2017-12-31T04:23:26.259Z,47.90
2017-12-31T04:25:53.855Z,47.80
2017-12-31T04:28:21.467Z,47.90
2017-12-31T04:30:49.068Z,48.00
2017-12-31T04:33:16.652Z,47.90
2017-12-31T04:35:44.253Z,47.90
2017-12-31T04:38:11.835Z,47.90
2017-12-31T04:40:40.229Z,47.90
2017-12-31T04:43:07.820Z,47.90
2017-12-31T04:45:35.406Z,47.90
2017-12-31T04:48:02.978Z,47.90
2017-12-31T04:50:30.557Z,47.80
2017-12-31T04:52:58.941Z,47.80
2017-12-31T04:55:27.284Z,47.90
2017-12-31T04:57:54.881Z,47.80
2017-12-31T05:00:23.240Z,47.80
2017-12-31T05:02:51.606Z,48.00
2017-12-31T05:05:19.234Z,47.80
2017-12-31T05:07:46.815Z,47.80
2017-12-31T05:10:15.200Z,47.80
2017-12-31T05:12:42.781Z,47.80
2017-12-31T05:15:11.146Z,47.80
2017-12-31T05:17:38.777Z,47.80
2017-12-31T05:20:06.411Z,47.80
2017-12-31T05:22:34.012Z,47.80
2017-12-31T05:25:01.606Z,47.90
2017-12-31T05:27:29.240Z,47.80
2017-12-31T05:29:56.852Z,47.80
2017-12-31T05:32:25.210Z,47.70
2017-12-31T05:34:53.547Z,48.40
2017-12-31T05:37:21.138Z,47.70
2017-12-31T05:39:48.734Z,47.80
2017-12-31T05:42:16.339Z,48.30
2017-12-31T05:44:44.696Z,47.80
2017-12-31T05:47:12.289Z,48.30
2017-12-31T05:49:39.886Z,47.80
2017-12-31T05:52:08.257Z,47.80
2017-12-31T05:54:36.630Z,47.80
2017-12-31T05:57:05.019Z,47.80
2017-12-31T05:59:32.629Z,47.80
2017-12-31T06:02:00.208Z,47.70
2017-12-31T06:04:27.806Z,47.70
2017-12-31T06:06:55.442Z,47.70
2017-12-31T06:09:23.052Z,47.70
2017-12-31T06:11:50.651Z,47.70
2017-12-31T06:14:18.250Z,47.70
2017-12-31T06:16:45.878Z,47.70
2017-12-31T06:19:13.484Z,47.70
2017-12-31T06:21:41.071Z,47.60
2017-12-31T06:24:08.667Z,47.70
2017-12-31T06:26:36.244Z,47.60
2017-12-31T06:29:04.604Z,47.70
2017-12-31T06:31:33.026Z,47.60
2017-12-31T06:34:00.617Z,47.60
2017-12-31T06:36:28.203Z,47.60
2017-12-31T06:38:55.800Z,47.60
2017-12-31T06:41:23.399Z,47.60
2017-12-31T06:43:51.004Z,47.60
2017-12-31T06:46:19.359Z,48.00
2017-12-31T06:48:46.939Z,47.60
2017-12-31T06:51:15.290Z,47.80
2017-12-31T06:53:42.897Z,47.50
2017-12-31T06:56:11.261Z,47.50
2017-12-31T06:58:39.619Z,47.50
2017-12-31T07:01:07.231Z,47.50
2017-12-31T07:03:34.833Z,47.50
2017-12-31T07:06:02.735Z,47.50
2017-12-31T07:08:31.108Z,47.60
2017-12-31T07:10:59.451Z,47.60
2017-12-31T07:13:27.043Z,47.60
2017-12-31T07:15:55.415Z,47.10
2017-12-31T07:18:22.996Z,47.60
2017-12-31T07:20:51.377Z,47.60
2017-12-31T07:23:19.712Z,48.10
2017-12-31T07:25:47.288Z,47.50
2017-12-31T07:28:14.864Z,47.60
2017-12-31T07:30:43.241Z,47.60
2017-12-31T07:33:11.632Z,47.60
2017-12-31T07:35:39.993Z,47.50
2017-12-31T07:38:07.581Z,47.50
2017-12-31T07:40:35.177Z,47.90
2017-12-31T07:43:02.749Z,47.60
2017-12-31T07:45:30.353Z,47.50
2017-12-31T07:47:58.701Z,47.40
2017-12-31T07:50:26.291Z,47.40
2017-12-31T07:52:53.868Z,47.40
2017-12-31T07:55:21.460Z,47.50
2017-12-31T07:57:49.078Z,47.40
2017-12-31T08:00:17.430Z,47.40
2017-12-31T08:02:45.013Z,47.40
2017-12-31T08:05:13.364Z,47.40
2017-12-31T08:07:40.937Z,47.30
2017-12-31T08:10:09.325Z,47.30
2017-12-31T08:12:37.659Z,47.30
2017-12-31T08:15:05.255Z,47.20
2017-12-31T08:17:32.843Z,47.20
2017-12-31T08:20:00.433Z,47.30
2017-12-31T08:22:28.048Z,47.30
2017-12-31T08:24:56.406Z,47.60
2017-12-31T08:27:24.009Z,47.00
2017-12-31T08:29:51.594Z,47.00
2017-12-31T08:32:19.182Z,47.00
2017-12-31T08:34:46.810Z,47.00
2017-12-31T08:37:14.384Z,47.00
2017-12-31T08:39:41.972Z,47.00
2017-12-31T08:42:09.544Z,46.90
2017-12-31T08:44:37.901Z,46.50
2017-12-31T08:47:06.326Z,46.50
2017-12-31T08:49:33.918Z,47.00
2017-12-31T08:52:01.492Z,46.50
2017-12-31T08:54:29.062Z,46.50
2017-12-31T08:56:56.652Z,46.60
2017-12-31T08:59:25.030Z,46.50
2017-12-31T09:01:53.387Z,46.50
2017-12-31T09:04:20.970Z,46.50
2017-12-31T09:06:49.312Z,46.50
2017-12-31T09:09:16.888Z,46.40
2017-12-31T09:11:44.500Z,46.40
2017-12-31T09:14:12.156Z,46.50
2017-12-31T09:16:40.493Z,46.30
2017-12-31T09:19:08.091Z,46.30
2017-12-31T09:21:35.709Z,46.40
2017-12-31T09:24:03.324Z,46.40
2017-12-31T09:26:30.902Z,46.50
2017-12-31T09:28:58.493Z,46.40
2017-12-31T09:31:26.073Z,46.40
2017-12-31T09:33:54.421Z,46.40
2017-12-31T09:36:22.056Z,46.30
2017-12-31T09:38:49.656Z,46.30
2017-12-31T09:41:17.262Z,46.30
2017-12-31T09:43:44.854Z,46.30
2017-12-31T09:46:12.449Z,46.40
2017-12-31T09:48:40.841Z,46.20
2017-12-31T09:51:08.451Z,46.10
2017-12-31T09:53:36.041Z,46.20
2017-12-31T09:56:03.631Z,46.10
2017-12-31T09:58:31.214Z,46.00
2017-12-31T10:00:58.853Z,46.00
2017-12-31T10:03:27.225Z,45.90
2017-12-31T10:05:55.607Z,45.90
2017-12-31T10:08:23.197Z,45.80
2017-12-31T10:10:50.809Z,46.00
2017-12-31T10:13:19.225Z,46.00
2017-12-31T10:15:46.832Z,45.90
2017-12-31T10:18:14.416Z,46.00
2017-12-31T10:20:42.778Z,45.80
2017-12-31T10:23:10.373Z,45.80
2017-12-31T10:25:38.769Z,45.90
2017-12-31T10:28:06.382Z,45.80
2017-12-31T10:30:33.962Z,45.90
2017-12-31T10:33:02.325Z,45.70
2017-12-31T10:35:29.905Z,45.70
2017-12-31T10:37:58.303Z,45.60
2017-12-31T10:40:25.909Z,45.60
2017-12-31T10:42:53.479Z,45.60
2017-12-31T10:45:21.068Z,45.60
2017-12-31T10:47:49.418Z,45.60
2017-12-31T10:50:17.023Z,45.50
2017-12-31T10:52:44.604Z,45.50
2017-12-31T10:55:12.200Z,45.40
2017-12-31T10:57:39.790Z,45.30
2017-12-31T11:00:08.155Z,45.30
2017-12-31T11:02:36.504Z,45.20
2017-12-31T11:05:04.863Z,45.10
2017-12-31T11:07:32.492Z,45.20
2017-12-31T11:10:00.834Z,45.10
2017-12-31T11:12:28.434Z,45.10
2017-12-31T11:14:56.030Z,45.30
2017-12-31T11:17:23.624Z,45.20
2017-12-31T11:19:51.242Z,45.20
2017-12-31T11:22:18.814Z,45.20
2017-12-31T11:24:46.398Z,44.90
2017-12-31T11:27:13.975Z,44.90
2017-12-31T11:29:41.580Z,44.90
2017-12-31T11:32:09.185Z,45.00
2017-12-31T11:34:36.781Z,45.00
2017-12-31T11:37:04.389Z,45.00
2017-12-31T11:39:32.748Z,44.90
2017-12-31T11:42:00.338Z,45.50
2017-12-31T11:44:27.961Z,45.00
2017-12-31T11:46:55.539Z,44.90
2017-12-31T11:49:23.169Z,44.90
2017-12-31T11:51:50.759Z,45.00
2017-12-31T11:54:18.386Z,45.00
2017-12-31T11:56:46.752Z,44.80
2017-12-31T11:59:15.115Z,44.70
2017-12-31T12:01:42.698Z,44.70
2017-12-31T12:04:11.047Z,44.60
2017-12-31T12:06:38.649Z,44.60
2017-12-31T12:09:06.272Z,44.50
2017-12-31T12:11:33.859Z,44.60
2017-12-31T12:14:02.201Z,44.60
2017-12-31T12:16:29.792Z,44.60
2017-12-31T12:18:58.157Z,44.60
2017-12-31T12:21:25.775Z,44.50
2017-12-31T12:23:53.362Z,44.50
2017-12-31T12:26:20.954Z,44.50
2017-12-31T12:28:49.303Z,44.50
2017-12-31T12:31:16.902Z,44.50
2017-12-31T12:33:45.297Z,44.50
2017-12-31T12:36:12.903Z,44.50
2017-12-31T12:38:40.494Z,44.50
2017-12-31T12:41:08.855Z,44.50
2017-12-31T12:43:36.457Z,44.50
2017-12-31T12:46:04.097Z,44.50
2017-12-31T12:48:32.460Z,44.50
2017-12-31T12:51:00.058Z,44.50
2017-12-31T12:53:27.639Z,44.50
2017-12-31T12:55:55.515Z,44.60
2017-12-31T12:58:23.164Z,44.60
2017-12-31T13:00:50.748Z,44.60
2017-12-31T13:03:18.342Z,44.70
2017-12-31T13:05:46.700Z,44.70
2017-12-31T13:08:14.282Z,44.70
2017-12-31T13:10:42.649Z,44.70
2017-12-31T13:13:10.242Z,44.60
2017-12-31T13:15:37.842Z,44.60
2017-12-31T13:18:05.425Z,44.70
2017-12-31T13:20:33.012Z,44.70
2017-12-31T13:23:01.418Z,44.80
2017-12-31T13:25:28.990Z,44.80
2017-12-31T13:27:56.591Z,44.80
2017-12-31T13:30:24.199Z,44.80
2017-12-31T13:32:51.810Z,44.80
2017-12-31T13:35:19.439Z,44.90
2017-12-31T13:37:47.814Z,44.50
2017-12-31T13:40:15.424Z,44.90
2017-12-31T13:42:43.783Z,45.20
2017-12-31T13:45:11.380Z,45.00
2017-12-31T13:47:39.756Z,44.90
2017-12-31T13:50:08.131Z,45.00
2017-12-31T13:52:36.492Z,45.00
2017-12-31T13:55:04.074Z,44.90
2017-12-31T13:57:32.439Z,45.10
2017-12-31T14:00:00.816Z,45.50
2017-12-31T14:02:28.401Z,45.00
2017-12-31T14:04:55.997Z,45.10
2017-12-31T14:07:24.382Z,45.20
2017-12-31T14:09:51.956Z,45.20
2017-12-31T14:12:19.577Z,45.20
2017-12-31T14:14:47.172Z,45.20
2017-12-31T14:17:14.766Z,45.30
2017-12-31T14:19:43.122Z,45.30
2017-12-31T14:22:10.695Z,45.30
2017-12-31T14:24:38.342Z,45.40
2017-12-31T14:27:05.939Z,45.40
2017-12-31T14:29:34.283Z,45.50
2017-12-31T14:32:01.892Z,45.50
2017-12-31T14:34:29.477Z,45.40
2017-12-31T14:36:57.097Z,45.50
2017-12-31T14:39:25.444Z,45.60
2017-12-31T14:41:53.036Z,45.60
2017-12-31T14:44:21.396Z,45.50
2017-12-31T14:46:48.996Z,45.50
2017-12-31T14:49:16.621Z,45.60
2017-12-31T14:51:44.972Z,46.00
2017-12-31T14:54:12.585Z,45.70
2017-12-31T14:56:40.951Z,45.60
2017-12-31T14:59:09.318Z,45.70
2017-12-31T15:01:36.936Z,45.60
2017-12-31T15:04:04.534Z,45.80
2017-12-31T15:06:32.129Z,46.30
2017-12-31T15:08:59.699Z,45.70
2017-12-31T15:11:27.294Z,45.80
2017-12-31T15:13:54.914Z,45.80
2017-12-31T15:16:22.505Z,45.80
2017-12-31T15:18:50.098Z,45.80
2017-12-31T15:21:17.683Z,45.80
2017-12-31T15:23:46.034Z,45.90
2017-12-31T15:26:13.637Z,45.90
2017-12-31T15:28:41.234Z,45.90
2017-12-31T15:31:08.806Z,46.00
2017-12-31T15:33:36.423Z,46.00
2017-12-31T15:36:04.010Z,46.00
2017-12-31T15:38:31.642Z,46.00
2017-12-31T15:40:59.234Z,46.00
2017-12-31T15:43:26.831Z,46.10
2017-12-31T15:45:55.210Z,46.20
2017-12-31T15:48:22.827Z,46.20
2017-12-31T15:50:50.459Z,46.60
2017-12-31T15:53:18.865Z,46.30
2017-12-31T15:55:46.485Z,46.30
2017-12-31T15:58:14.836Z,46.30
2017-12-31T16:00:42.427Z,46.30
2017-12-31T16:03:10.857Z,46.40
2017-12-31T16:05:38.475Z,46.30
2017-12-31T16:08:06.080Z,46.40
2017-12-31T16:10:33.732Z,46.40
2017-12-31T16:13:01.320Z,46.50
2017-12-31T16:15:28.949Z,46.50
2017-12-31T16:17:56.556Z,46.60
2017-12-31T16:20:24.146Z,46.60
2017-12-31T16:22:52.518Z,46.60
2017-12-31T16:25:20.915Z,46.70
2017-12-31T16:27:48.524Z,46.60
2017-12-31T16:30:16.124Z,46.70
2017-12-31T16:32:44.511Z,46.80
2017-12-31T16:35:12.090Z,46.70
2017-12-31T16:37:39.694Z,46.70
2017-12-31T16:40:07.313Z,46.70
2017-12-31T16:42:34.894Z,46.80
2017-12-31T16:45:02.512Z,46.80
2017-12-31T16:47:30.864Z,46.80
2017-12-31T16:49:58.451Z,46.80
2017-12-31T16:52:26.087Z,46.80
2017-12-31T16:54:53.715Z,46.80
2017-12-31T16:57:21.308Z,46.80
2017-12-31T16:59:48.897Z,46.90
2017-12-31T17:02:17.268Z,46.90
2017-12-31T17:04:45.646Z,47.00
2017-12-31T17:07:14.010Z,47.00
2017-12-31T17:09:42.374Z,47.00
2017-12-31T17:12:09.966Z,47.00
2017-12-31T17:14:38.313Z,47.00
2017-12-31T17:17:05.954Z,47.00
2017-12-31T17:19:33.547Z,47.00
2017-12-31T17:22:01.145Z,47.10
2017-12-31T17:24:28.754Z,47.10
2017-12-31T17:26:56.367Z,47.10
2017-12-31T17:29:23.968Z,47.20
2017-12-31T17:31:52.339Z,47.30
2017-12-31T17:34:20.018Z,47.20
2017-12-31T17:36:47.618Z,47.90
2017-12-31T17:39:15.979Z,47.30
2017-12-31T17:41:44.363Z,47.30
2017-12-31T17:44:12.720Z,47.50
2017-12-31T17:46:40.310Z,47.30
2017-12-31T17:49:08.701Z,47.30
2017-12-31T17:51:36.310Z,47.30
2017-12-31T17:54:03.981Z,47.30
2017-12-31T17:56:31.570Z,47.30
2017-12-31T17:58:59.940Z,47.40
2017-12-31T18:01:28.321Z,47.20
2017-12-31T18:03:56.668Z,47.30
2017-12-31T18:06:24.291Z,47.30
2017-12-31T18:08:51.932Z,47.40
2017-12-31T18:11:20.297Z,47.40
2017-12-31T18:13:48.682Z,48.00
2017-12-31T18:16:17.058Z,47.40
2017-12-31T18:18:45.452Z,47.40
2017-12-31T18:21:13.849Z,47.50
2017-12-31T18:23:41.422Z,47.40
2017-12-31T18:26:09.020Z,47.40
2017-12-31T18:28:36.765Z,47.40
2017-12-31T18:31:04.402Z,47.50
2017-12-31T18:33:32.005Z,47.50
2017-12-31T18:35:59.627Z,47.50
2017-12-31T18:38:27.239Z,48.00
2017-12-31T18:40:54.829Z,47.40
2017-12-31T18:43:23.200Z,47.50
2017-12-31T18:45:51.568Z,47.50
2017-12-31T18:48:19.931Z,47.60
2017-12-31T18:50:47.507Z,47.50
2017-12-31T18:53:15.850Z,47.60
2017-12-31T18:55:43.455Z,47.60
2017-12-31T18:58:11.793Z,47.60
2017-12-31T19:00:40.161Z,47.60
2017-12-31T19:03:07.739Z,47.60
2017-12-31T19:05:35.350Z,47.60
2017-12-31T19:08:02.964Z,47.60
2017-12-31T19:10:30.573Z,47.50
2017-12-31T19:12:58.179Z,47.60
2017-12-31T19:15:25.782Z,47.60
2017-12-31T19:17:54.138Z,47.70
2017-12-31T19:20:21.764Z,47.60
2017-12-31T19:22:49.412Z,47.60
2017-12-31T19:25:17.012Z,47.60
2017-12-31T19:27:44.597Z,47.60
2017-12-31T19:30:12.950Z,47.70
2017-12-31T19:32:40.554Z,47.60
2017-12-31T19:35:08.149Z,47.60
2017-12-31T19:37:35.736Z,47.60
2017-12-31T19:40:03.342Z,47.60
2017-12-31T19:42:30.963Z,47.60
2017-12-31T19:44:59.364Z,47.60
2017-12-31T19:47:27.718Z,47.60
2017-12-31T19:49:55.322Z,47.50
2017-12-31T19:52:22.929Z,47.50
2017-12-31T19:54:50.513Z,47.60
2017-12-31T19:57:18.140Z,47.50
2017-12-31T19:59:45.761Z,47.50
2017-12-31T20:02:14.107Z,47.60
2017-12-31T20:04:41.702Z,47.60
2017-12-31T20:07:09.289Z,47.60
2017-12-31T20:09:36.943Z,47.60
2017-12-31T20:12:04.552Z,47.60
2017-12-31T20:14:32.141Z,47.60
2017-12-31T20:17:00.512Z,47.50
2017-12-31T20:19:28.888Z,47.50
2017-12-31T20:21:57.251Z,47.50
2017-12-31T20:24:24.851Z,47.60
2017-12-31T20:26:52.448Z,47.60
2017-12-31T20:29:20.033Z,47.60
2017-12-31T20:31:47.612Z,47.50
2017-12-31T20:34:16.018Z,47.60
2017-12-31T20:36:43.637Z,47.60
2017-12-31T20:39:11.238Z,47.60
2017-12-31T20:41:38.856Z,48.10
2017-12-31T20:44:06.489Z,47.60
2017-12-31T20:46:34.123Z,47.60
2017-12-31T20:49:01.707Z,47.60
2017-12-31T20:51:29.298Z,47.60
2017-12-31T20:53:56.892Z,47.70
2017-12-31T20:56:24.488Z,47.60
2017-12-31T20:58:52.126Z,47.70
2017-12-31T21:01:19.754Z,47.60
2017-12-31T21:03:48.137Z,48.10
2017-12-31T21:06:16.491Z,47.80
2017-12-31T21:08:44.075Z,47.70
2017-12-31T21:11:12.462Z,47.90
2017-12-31T21:13:40.843Z,47.80
2017-12-31T21:16:09.218Z,47.80
2017-12-31T21:18:37.558Z,47.80
2017-12-31T21:21:05.176Z,47.80
2017-12-31T21:23:33.560Z,47.80
2017-12-31T21:26:01.186Z,47.80
2017-12-31T21:28:28.770Z,47.80
2017-12-31T21:30:56.374Z,47.80
2017-12-31T21:33:23.994Z,47.80
2017-12-31T21:35:52.385Z,47.80
2017-12-31T21:38:20.020Z,47.80
2017-12-31T21:40:48.387Z,47.90
2017-12-31T21:43:15.986Z,47.90
2017-12-31T21:45:43.582Z,47.90
2017-12-31T21:48:11.200Z,47.90
2017-12-31T21:50:38.814Z,47.90
2017-12-31T21:53:06.389Z,47.90
2017-12-31T21:55:34.007Z,47.90
2017-12-31T21:58:01.603Z,47.90
2017-12-31T22:00:29.338Z,47.90
2017-12-31T22:02:56.936Z,47.90
2017-12-31T22:05:24.551Z,47.90
2017-12-31T22:07:52.223Z,48.00
2017-12-31T22:10:19.821Z,48.00
2017-12-31T22:12:47.445Z,47.90
2017-12-31T22:15:15.056Z,48.00
2017-12-31T22:17:43.430Z,48.00
2017-12-31T22:20:11.055Z,48.00
2017-12-31T22:22:38.663Z,48.00
2017-12-31T22:25:07.104Z,48.10
2017-12-31T22:27:34.739Z,48.10
2017-12-31T22:30:02.345Z,48.10
2017-12-31T22:32:29.945Z,48.10
2017-12-31T22:34:58.288Z,48.20
2017-12-31T22:37:25.909Z,48.10
2017-12-31T22:39:53.481Z,48.10
2017-12-31T22:42:21.082Z,48.10
2017-12-31T22:44:49.455Z,48.20
2017-12-31T22:47:17.827Z,48.20
2017-12-31T22:49:45.491Z,48.10
2017-12-31T22:52:13.100Z,48.20
2017-12-31T22:54:40.714Z,48.20
2017-12-31T22:57:08.347Z,48.20
2017-12-31T22:59:35.937Z,48.20
2017-12-31T23:02:03.596Z,48.20
2017-12-31T23:04:31.196Z,48.20
2017-12-31T23:06:58.776Z,48.20
2017-12-31T23:09:26.390Z,48.20
2017-12-31T23:11:54.030Z,48.20
2017-12-31T23:14:21.644Z,48.20
2017-12-31T23:16:49.230Z,48.20
2017-12-31T23:19:16.822Z,48.20
2017-12-31T23:21:44.410Z,48.30
2017-12-31T23:24:12.756Z,48.20
2017-12-31T23:26:40.375Z,48.20
2017-12-31T23:29:07.971Z,48.20
2017-12-31T23:31:35.556Z,48.20
2017-12-31T23:34:03.924Z,48.20
2017-12-31T23:36:32.314Z,48.20
2017-12-31T23:38:59.930Z,48.20
2017-12-31T23:41:27.532Z,48.40
2017-12-31T23:43:55.154Z,48.20
2017-12-31T23:46:22.746Z,48.20
2017-12-31T23:48:50.358Z,48.10
2017-12-31T23:51:17.999Z,48.10
2017-12-31T23:53:46.365Z,48.10
2017-12-31T23:56:13.956Z,48.10
2017-12-31T23:58:41.565Z,48.30
